Felix Weber

Scout - Hamburger SV
4 Dez 2027
Samstag
Verarbeitung

Persönlichkeit

Anpassungsfähigkeit (1) Ehrgeiz (2) Kontroverse (6) Loyalität (11) Druck (8) Professionalität (3) Fairness (11) Temperament (11)

Profil

Trainerstil Demokratisch
Lizenz Kontinentale Pro
Entschlossenheit 14
Menschenführung 13
Motivation 13
Disziplin 11
Arbeitszufriedenheit
100%
Ermüdung
0%
Rolle Scout
Gehalt 83.4K p/W
Vertrag 14.03.2030

Leistung

Verhalten Gut
Trainingseffektivität
50%
Spielerentwicklung
65%
Verletzungsprävention
60%
Taktische Umsetzung
70%

Letzte Ereignisse

Nahm an einer Scouting-Besprechung teil 7T her
Nahm an einer Scouting-Besprechung teil 14T her
Spiel beobachtet 14T her
Nahm an einer Scouting-Besprechung teil 21T her
Spiel beobachtet 21T her
Nahm an einer Scouting-Besprechung teil 28T her
Spiel beobachtet 28T her
Spiel beobachtet 35T her

Aktuell beobachtet

71
Spieler Verein Status Fähigkeit Vertrauen Beobachtet Zuletzt beobachtet Letzte Stimme
William Bøving Mainz 05 Aktiv 143 / 136 51% 1 28.06.2027 -
Mathias Pereira Lage St. Pauli Aktiv 132 / 127 51% 1 02.06.2027 -
Senny Mayulu Paris Saint-Germain Aktiv 151 / 146 40% 3 31.05.2027 -
Yussif Saidu Zaragoza Aktiv 130 / 125 40% 1 30.05.2027 -
Lander Astiazarán Real Sociedad Aktiv 101 / 107 40% 4 27.05.2027 -
Givairo Read Feyenoord Aktiv 150 / 153 40% 3 27.05.2027 -
Can Uzun Eintracht Frankfurt Aktiv 131 / 145 40% 3 25.05.2027 -
Ethan Mbappé LOSC Lille Aktiv 136 / 140 40% 1 25.05.2027 -
Shea Lacey Millwall Aktiv 124 / 125 40% 1 22.05.2027 -
Christos Mouzakitis Hull City Aktiv 122 / 140 40% 2 21.05.2027 -
Sam Curtis Swindon Town Aktiv 101 / 106 40% 1 21.05.2027 -
Caleb Yirenkyi Coventry City Aktiv 140 / 144 40% 3 20.05.2027 -
Jan Virgili Club Brugge Aktiv 127 / 133 40% 1 20.05.2027 -
Héctor Fort Real Sociedad Aktiv 143 / 142 40% 2 19.05.2027 -
David Mella Deportivo La Coruña Aktiv 138 / 134 40% 3 12.05.2027 -
Olívio Tomé Benfica Aktiv 99 / 111 40% 1 11.05.2027 -
Jesús Rodríguez Napoli Aktiv 132 / 151 40% 1 11.05.2027 -
Nikolaus Wurmbrand Heidenheim Aktiv 108 / 124 40% 2 10.05.2027 -
Christian Kofane Bayer Leverkusen Aktiv 126 / 138 40% 2 09.05.2027 -
Riley Owen Wycombe Wanderers Aktiv 91 / 111 40% 1 08.05.2027 -
Paul Wanner PSV Aktiv 146 / 134 40% 1 08.05.2027 -
Oumar Camara Vitoria Guimaraes Aktiv 113 / 132 40% 3 04.05.2027 -
Chemsdine Talbi Sunderland Aktiv 135 / 142 40% 1 03.05.2027 -
Oscar Schwartau Norwich City Aktiv 126 / 132 40% 1 02.05.2027 -
Mamadou Diakhon Club Brugge Aktiv 115 / 129 40% 1 02.05.2027 -
Daniel Awuni Aduana Stars Aktiv 104 / 99 40% 2 01.05.2027 -
Cyriaque Irié Borussia Mönchengladbach Aktiv 111 / 127 40% 2 20.04.2027 -
Nacer Mignolet KV Oostende Aktiv 139 / 137 40% 2 19.04.2027 -
Sindre Walle Egeli Nottingham Forest Aktiv 141 / 137 40% 1 16.04.2027 -
Amine Moussaoui Angers SCO Aktiv 105 / 106 40% 1 14.04.2027 -
Sidiki Chérif Coventry City Aktiv 137 / 129 40% 2 09.04.2027 -
Gorka Gorosabel Real Sociedad Aktiv 100 / 120 40% 1 09.04.2027 -
Antonio Nusa RB Leipzig Aktiv 161 / 154 40% 1 07.04.2027 -
Mathys Tel Stade Rennais Aktiv 135 / 147 40% 2 29.03.2027 -
Dehmaine Tabibou FC Nantes Aktiv 135 / 135 40% 2 19.03.2027 -
Malick Fofana Sunderland Aktiv 133 / 149 40% 1 19.03.2027 -
Kevin Fulham Aktiv 142 / 149 40% 1 31.12.2026 -
Jordan Beyer Burnley Aktiv 139 / 134 40% 1 31.12.2026 -
Mohammed Kudus Tottenham Aktiv 154 / 155 40% 2 30.12.2026 -
Rafael Leão Galatasaray Aktiv 162 / 157 40% 1 30.12.2026 -
Pau Víctor Estrela da Amadora Aktiv 138 / 135 40% 3 27.12.2026 -
Kevin Schade Brentford Aktiv 157 / 148 40% 2 26.12.2026 -
Armindo Sieb OB Aktiv 114 / 118 40% 1 18.12.2026 -
Seedy Jatta Sturm Graz Aktiv 134 / 123 40% 2 15.12.2026 -
Marin Benko Zadar Aktiv 127 / 124 40% 1 03.12.2026 -
Julian von Moos Grasshopper Aktiv 113 / 118 40% 1 03.12.2026 -
Adriano Bertaccini Anderlecht Aktiv 139 / 119 40% 1 01.12.2026 -
David Nieland Chernomorets Aktiv 100 / 96 40% 2 25.11.2026 -
Karim Adeyemi Barcelona Aktiv 140 / 151 40% 2 22.11.2026 -
Žan Celar Basel Aktiv 114 / 106 40% 1 20.11.2026 -
Umeh Emmanuel Fatih Karagumruk Aktiv 113 / 121 40% 1 19.11.2026 -
Sinan Karweina Luzern Aktiv 125 / 113 40% 1 12.11.2026 -
Noé Sow Sion Aktiv 115 / 116 40% 1 05.11.2026 -
Frans Krätzig Red Bull Salzburg Aktiv 132 / 127 40% 1 05.11.2026 -
Alan Virginius Young Boys Aktiv 122 / 123 40% 1 04.11.2026 -
Carlo Boukhalfa St. Gallen Aktiv 117 / 118 40% 1 04.11.2026 -
Giannis Konstantelias Borussia Dortmund Aktiv 135 / 148 40% 2 01.11.2026 -
Álex Baena Atlético Madrid Aktiv 167 / 157 40% 2 31.10.2026 -
Reda Khadra Qarabag Aktiv 122 / 128 40% 1 31.10.2026 -
Mattia Zanotti Lugano Aktiv 126 / 130 40% 1 29.10.2026 -
Miguel Gutiérrez Bayer Leverkusen Aktiv 160 / 154 40% 1 29.10.2026 -
Oihan Sancet Eintracht Frankfurt Aktiv 156 / 153 40% 1 25.10.2026 -
Juan-José Perea Zurich Aktiv 122 / 122 40% 1 23.10.2026 -
Reiss Nelson VfL Wolfsburg Aktiv 152 / 145 40% 1 14.10.2026 -
Enzo Loiodice KAA Gent Aktiv 129 / 130 40% 1 13.10.2026 -
Caspar Jander Southampton Aktiv 123 / 129 40% 1 09.10.2026 -
Philippe Keny Zurich Aktiv 130 / 120 40% 1 09.10.2026 -
Claudy M'Buyi Rapid Wien Aktiv 105 / 118 40% 1 08.10.2026 -
Gabri Veiga FC Augsburg Aktiv 140 / 151 40% 1 08.10.2026 -
Eric Smith St. Pauli Aktiv 142 / 130 51% 1 24.08.2026 -
Hennes Behrens FC Augsburg Aktiv 126 / 125 40% 1 18.08.2026 -